This is the latest recevied weather packets stored in our database for station/object NT9M-13. If no packets are shown the sender has not sent any weather packets the latest 10 day(s).
| Time | Temp. | Humidity | Pressure | Rain* | Wind** | Luminosity | Snow |
|---|---|---|---|---|---|---|---|
| 1777968582 | 14.44° C | 93% | 1003.2 hPa | 0 mm | - | - | - |
| 1777967382 | 14.44° C | 93% | 1003.3 hPa | 0 mm | - | - | - |
| 1777964382 | 14.44° C | 93% | 1002.1 hPa | 0 mm | - | - | - |
| 1777958983 | 14.44° C | 94% | 1002.2 hPa | 0 mm | - | - | - |
| 1777952983 | 15.56° C | 92% | 1002.8 hPa | 3.05 mm | - | - | - |
| 1777946983 | 20° C | 72% | 1000.9 hPa | 0 mm | - | - | - |
| 1777945183 | 21.11° C | 68% | 1001.2 hPa | 0 mm | - | - | - |
| 1777943983 | 21.11° C | 66% | 1000.5 hPa | 0 mm | - | - | - |
| 1777941583 | 21.67° C | 64% | 1000.4 hPa | 0 mm | - | - | - |
| 1777937983 | 22.22° C | 60% | 1000.5 hPa | 0 mm | - | - | - |
| 1777933184 | 24.44° C | 52% | 1000.1 hPa | 0 mm | - | - | - |
| 1777927783 | 24.44° C | 52% | 1000.5 hPa | 0 mm | - | - | - |
| 1777925383 | 25° C | 54% | 1001.1 hPa | 0 mm | - | - | - |
| 1777918183 | 25° C | 52% | 1002.6 hPa | 0 mm | - | - | - |
| 1777916384 | 24.44° C | 49% | 1003 hPa | 0 mm | - | - | - |
| 1777912784 | 23.89° C | 47% | 1003.9 hPa | 0 mm | - | - | - |
| 1777907384 | 20.56° C | 60% | 1005 hPa | 0 mm | - | - | - |
| 1777905584 | 19.44° C | 62% | 1005.2 hPa | 0 mm | - | - | - |
| 1777903184 | 17.78° C | 67% | 1005.4 hPa | 0 mm | - | - | - |
| 1777901384 | 16.11° C | 72% | 1005.5 hPa | 0 mm | - | - | - |
| 1777894184 | 10.56° C | 84% | 1005.9 hPa | 0 mm | - | - | - |
| 1777892984 | 10.56° C | 85% | 1005.8 hPa | 0 mm | - | - | - |
| 1777883984 | 10.56° C | 84% | 1006 hPa | 0 mm | - | - | - |
| 1777861785 | 10.56° C | 82% | 1009 hPa | 0 mm | - | - | - |
| 1777856985 | 11.11° C | 79% | 1009.1 hPa | 0 mm | - | - | - |
* Rain latest hour (hover to see other rain measurements)
** Current wind speed in m/s (hover to see current wind gust speed)